Time;durP1;ratioP1;P1;durP2;ratioP2;P2;SDS_P1;SDS_P2;PMS_P1;PMS_P2;Temp;Humidity;BMP_temperature;BMP_pressure;BME280_temperature;BME280_humidity;BME280_pressure;Samples;Min_cycle;Max_cycle;Signal;HPM_P1;HPM_P2
2023/10/10 00:01:07;;;;;;;3.78;2.63;;;16.10;80.90;;;;;;4991285;28;20048;-18
2023/10/10 00:03:37;;;;;;;2.67;1.87;;;16.00;80.90;;;;;;4985665;28;20105;-19
2023/10/10 00:06:08;;;;;;;5.63;2.28;;;16.10;81.00;;;;;;4969281;28;20030;-18
2023/10/10 00:08:40;;;;;;;4.55;2.30;;;16.10;81.70;;;;;;5005195;28;20097;-18
2023/10/10 00:11:10;;;;;;;3.08;2.20;;;16.00;80.90;;;;;;4990952;28;20108;-19
2023/10/10 00:13:43;;;;;;;3.00;2.30;;;16.00;80.90;;;;;;5006025;28;20107;-18
2023/10/10 00:16:38;;;;;;;3.27;2.20;;;16.00;81.00;;;;;;4987713;28;20059;-18
2023/10/10 00:19:17;;;;;;;3.50;2.10;;;16.00;81.60;;;;;;5000690;28;20479;-18
2023/10/10 00:21:47;;;;;;;3.72;2.30;;;16.00;81.10;;;;;;4972997;28;20029;-18
2023/10/10 00:24:14;;;;;;;3.85;2.40;;;15.90;81.00;;;;;;4989039;28;20254;-18
2023/10/10 00:26:43;;;;;;;4.30;2.42;;;15.90;81.10;;;;;;4998562;28;20113;-18
2023/10/10 00:29:09;;;;;;;3.40;2.37;;;15.90;81.10;;;;;;4983720;28;20259;-18
2023/10/10 00:31:43;;;;;;;3.17;2.08;;;15.90;81.20;;;;;;4990350;28;20031;-19
2023/10/10 00:34:09;;;;;;;3.38;2.38;;;15.90;81.30;;;;;;5003459;28;20013;-18
2023/10/10 00:36:36;;;;;;;4.43;2.10;;;15.90;81.30;;;;;;5001196;28;20029;-18
2023/10/10 00:39:12;;;;;;;4.90;2.40;;;15.80;81.20;;;;;;4975834;28;20329;-18
2023/10/10 00:41:52;;;;;;;3.63;2.17;;;15.80;81.30;;;;;;4991789;28;20049;-18
2023/10/10 00:44:19;;;;;;;4.00;2.28;;;15.80;81.30;;;;;;5002785;28;20025;-19
2023/10/10 00:46:51;;;;;;;3.60;2.30;;;15.80;81.30;;;;;;4987462;28;20029;-19
2023/10/10 00:49:23;;;;;;;2.92;2.10;;;15.80;81.30;;;;;;5002821;28;20334;-18
2023/10/10 00:51:54;;;;;;;3.03;2.03;;;15.70;81.30;;;;;;4999050;28;20042;-18
2023/10/10 00:56:55;;;;;;;3.28;2.10;;;15.70;81.50;;;;;;4991176;28;20025;-19
2023/10/10 00:59:44;;;;;;;3.08;2.17;;;15.60;84.70;;;;;;5004204;28;20498;-18
2023/10/10 01:02:16;;;;;;;4.03;1.90;;;15.60;81.80;;;;;;4974029;28;20747;-18
2023/10/10 01:04:49;;;;;;;2.80;2.10;;;15.60;81.80;;;;;;5000075;28;20383;-19
2023/10/10 01:07:18;;;;;;;3.10;1.80;;;15.60;81.60;;;;;;5001640;28;20091;-18
2023/10/10 01:10:18;;;;;;;4.65;2.50;;;15.60;81.90;;;;;;4976317;28;20391;-18
2023/10/10 01:12:42;;;;;;;2.90;2.13;;;15.60;81.70;;;;;;4992182;28;20048;-18
2023/10/10 01:15:16;;;;;;;3.20;2.15;;;15.50;81.60;;;;;;4981082;28;20222;-18
2023/10/10 01:17:46;;;;;;;4.05;2.35;;;15.50;81.70;;;;;;4990893;28;20029;-19
2023/10/10 01:20:18;;;;;;;4.40;2.30;;;15.50;81.70;;;;;;4981272;28;20203;-19
2023/10/10 01:22:48;;;;;;;2.88;1.90;;;15.50;81.80;;;;;;5003864;28;20113;-18
2023/10/10 01:28:05;;;;;;;3.55;2.15;;;15.40;82.20;;;;;;4990039;28;20022;-18
2023/10/10 01:30:44;;;;;;;4.05;2.50;;;15.40;82.30;;;;;;5015252;28;20038;-18
2023/10/10 01:33:16;;;;;;;3.60;2.37;;;15.40;82.10;;;;;;4989606;28;20588;-18
2023/10/10 01:35:43;;;;;;;3.33;2.10;;;15.40;82.20;;;;;;5000935;28;20084;-18
2023/10/10 01:38:41;;;;;;;4.63;2.40;;;15.40;82.20;;;;;;5002803;28;20128;-19
2023/10/10 01:41:22;;;;;;;5.72;2.58;;;15.40;83.20;;;;;;4971816;28;20030;-18
2023/10/10 01:43:53;;;;;;;4.35;2.65;;;15.40;82.70;;;;;;4975902;28;20092;-18
2023/10/10 01:46:28;;;;;;;3.03;1.90;;;15.30;82.50;;;;;;4998467;28;20081;-18
2023/10/10 01:48:54;;;;;;;3.35;2.13;;;15.30;82.80;;;;;;4986410;28;20053;-19
2023/10/10 01:51:20;;;;;;;3.88;2.30;;;15.30;82.70;;;;;;4998426;28;20018;-19
2023/10/10 01:53:48;;;;;;;3.63;2.70;;;15.30;82.70;;;;;;4998605;28;20040;-18
2023/10/10 01:56:14;;;;;;;3.80;2.28;;;15.30;82.80;;;;;;4968917;28;20480;-18
2023/10/10 01:58:41;;;;;;;3.97;2.70;;;15.30;82.90;;;;;;4991675;28;20037;-18
2023/10/10 02:01:16;;;;;;;3.45;2.45;;;15.30;83.00;;;;;;5001093;28;20091;-18
2023/10/10 02:03:43;;;;;;;3.88;2.50;;;15.30;83.60;;;;;;4990866;28;20025;-19
2023/10/10 02:06:14;;;;;;;3.07;2.00;;;15.30;83.10;;;;;;5000418;28;20100;-18
2023/10/10 02:08:44;;;;;;;4.22;2.50;;;15.30;83.10;;;;;;4989184;28;20029;-19
2023/10/10 02:11:12;;;;;;;3.45;2.33;;;15.30;83.40;;;;;;4975200;28;20549;-18
2023/10/10 02:13:39;;;;;;;3.22;2.22;;;15.40;83.10;;;;;;4997021;28;20046;-18
2023/10/10 02:16:11;;;;;;;3.92;2.30;;;15.30;83.10;;;;;;4980325;28;20061;-19
2023/10/10 02:18:44;;;;;;;4.40;2.50;;;15.30;83.10;;;;;;4996996;28;20073;-19
2023/10/10 02:21:16;;;;;;;3.83;2.15;;;15.40;83.10;;;;;;4990954;28;20174;-19
2023/10/10 02:23:45;;;;;;;4.10;2.30;;;15.30;83.10;;;;;;5006792;28;20030;-19
2023/10/10 02:26:23;;;;;;;3.33;2.15;;;15.30;83.10;;;;;;5005604;28;20282;-18
2023/10/10 02:28:49;;;;;;;3.58;2.42;;;15.20;87.00;;;;;;4971740;28;20022;-19
2023/10/10 02:31:18;;;;;;;3.20;2.33;;;15.30;83.20;;;;;;4993409;28;20676;-19
2023/10/10 02:33:54;;;;;;;4.32;2.38;;;15.20;83.10;;;;;;4997955;28;20038;-18
2023/10/10 02:36:30;;;;;;;3.83;2.20;;;15.30;83.20;;;;;;4999942;28;20116;-18
2023/10/10 02:39:18;;;;;;;4.20;2.30;;;15.30;83.10;;;;;;4996576;28;20034;-18
2023/10/10 02:41:58;;;;;;;4.07;2.30;;;15.20;83.10;;;;;;4999130;28;20669;-18
2023/10/10 02:44:38;;;;;;;3.63;2.10;;;15.20;83.10;;;;;;4962988;28;20080;-18
2023/10/10 02:47:05;;;;;;;4.38;2.83;;;15.20;83.10;;;;;;4997056;28;20316;-18
2023/10/10 02:49:30;;;;;;;4.18;2.22;;;15.20;83.10;;;;;;4981812;28;20028;-18
2023/10/10 02:51:57;;;;;;;3.47;2.20;;;15.10;83.10;;;;;;4986887;28;20431;-18
2023/10/10 02:54:34;;;;;;;3.97;2.30;;;15.10;83.20;;;;;;4982510;28;20029;-18
2023/10/10 02:59:51;;;;;;;3.20;2.20;;;15.10;83.60;;;;;;4967109;28;20030;-19
2023/10/10 03:02:19;;;;;;;3.50;2.28;;;15.10;83.20;;;;;;4993960;28;20021;-18
2023/10/10 03:07:28;;;;;;;3.50;2.20;;;15.10;83.60;;;;;;5002492;28;20024;-18
2023/10/10 03:12:50;;;;;;;2.95;1.90;;;15.00;83.40;;;;;;5001882;28;20088;-18
2023/10/10 03:17:52;;;;;;;2.77;2.10;;;15.00;83.70;;;;;;4988923;28;20470;-18
2023/10/10 03:20:34;;;;;;;3.20;2.20;;;15.00;83.60;;;;;;4992191;28;20116;-19
2023/10/10 03:26:34;;;;;;;2.78;1.88;;;14.90;83.50;;;;;;4998182;28;20674;-18
2023/10/10 03:31:42;;;;;;;3.73;2.00;;;14.90;83.50;;;;;;4961435;28;20034;-19
2023/10/10 05:25:31;;;;;;;3.22;1.90;;;14.20;84.70;;;;;;4988873;28;20674;-18
2023/10/10 05:27:58;;;;;;;4.00;2.05;;;14.20;85.10;;;;;;5017449;28;20029;-18
2023/10/10 05:30:25;;;;;;;4.05;2.17;;;14.20;84.80;;;;;;4997027;28;20608;-18
2023/10/10 05:33:04;;;;;;;3.80;2.20;;;14.20;84.90;;;;;;5001971;28;20034;-18
2023/10/10 05:35:36;;;;;;;3.35;2.00;;;14.10;84.80;;;;;;4964242;28;20108;-18
2023/10/10 05:38:07;;;;;;;3.97;2.10;;;14.20;85.20;;;;;;4988361;28;20034;-19
2023/10/10 05:40:33;;;;;;;3.45;1.92;;;14.10;84.80;;;;;;4987329;28;20252;-19
2023/10/10 05:43:00;;;;;;;3.95;2.30;;;14.10;84.90;;;;;;5004035;28;20181;-18
2023/10/10 05:45:26;;;;;;;3.50;2.20;;;14.10;85.00;;;;;;4997801;28;20328;-19
2023/10/10 05:47:51;;;;;;;3.88;2.17;;;14.10;85.00;;;;;;4986000;28;20640;-19
2023/10/10 05:50:18;;;;;;;4.03;2.22;;;14.00;84.90;;;;;;4981178;28;20022;-18
2023/10/10 05:52:48;;;;;;;2.78;1.83;;;14.00;85.00;;;;;;4997404;28;20412;-19
2023/10/10 05:55:17;;;;;;;4.38;2.17;;;14.00;85.10;;;;;;4978212;28;20129;-18
2023/10/10 05:57:43;;;;;;;2.77;1.97;;;14.10;85.10;;;;;;5003838;28;20473;-18
2023/10/10 06:00:11;;;;;;;3.90;2.20;;;14.00;85.10;;;;;;4998236;28;20030;-20
2023/10/10 06:02:37;;;;;;;3.78;2.20;;;14.00;85.10;;;;;;4997982;28;20738;-18
2023/10/10 06:05:05;;;;;;;2.43;1.60;;;14.00;85.10;;;;;;5002938;28;20979;-19
2023/10/10 06:07:32;;;;;;;4.28;2.10;;;14.00;85.10;;;;;;4957738;28;20026;-18
2023/10/10 06:09:58;;;;;;;3.45;2.08;;;14.00;85.10;;;;;;4987798;28;20041;-18
2023/10/10 06:12:28;;;;;;;3.00;2.00;;;14.00;85.10;;;;;;4970411;28;20041;-18
2023/10/10 06:14:54;;;;;;;3.63;2.10;;;14.00;85.40;;;;;;4983025;28;20048;-20
2023/10/10 06:17:23;;;;;;;3.47;2.10;;;14.00;85.20;;;;;;4995863;28;20037;-18
2023/10/10 06:19:50;;;;;;;3.28;2.30;;;14.00;85.30;;;;;;4978375;28;20298;-19
2023/10/10 06:22:16;;;;;;;4.40;2.10;;;14.00;85.40;;;;;;4964642;28;20510;-18
2023/10/10 06:24:43;;;;;;;4.17;2.50;;;14.00;85.40;;;;;;4980438;28;20605;-18
2023/10/10 06:27:09;;;;;;;3.97;2.17;;;14.00;85.50;;;;;;4985201;28;20267;-18
2023/10/10 06:29:40;;;;;;;5.05;2.20;;;14.00;85.60;;;;;;4998970;28;20506;-18
2023/10/10 06:32:15;;;;;;;3.30;2.30;;;14.00;85.90;;;;;;4998435;28;20084;-18
2023/10/10 06:34:45;;;;;;;3.03;1.80;;;14.10;85.90;;;;;;4983851;28;20033;-18
2023/10/10 06:37:11;;;;;;;3.13;1.85;;;14.10;86.10;;;;;;4998982;28;20448;-18
2023/10/10 06:39:55;;;;;;;4.00;1.98;;;14.10;86.10;;;;;;4969477;28;20116;-18
2023/10/10 06:42:27;;;;;;;3.50;1.80;;;14.10;86.30;;;;;;4968634;28;20045;-18
2023/10/10 06:45:01;;;;;;;3.42;2.00;;;14.20;86.40;;;;;;4993532;28;20175;-18
2023/10/10 06:47:28;;;;;;;3.42;2.30;;;14.30;86.60;;;;;;4982204;28;20056;-18
2023/10/10 06:49:54;;;;;;;3.45;2.00;;;14.30;86.50;;;;;;4982019;28;20395;-18
2023/10/10 06:52:20;;;;;;;3.13;2.00;;;14.30;86.50;;;;;;4992932;28;20041;-18
2023/10/10 06:54:55;;;;;;;7.70;2.45;;;14.40;86.60;;;;;;4966070;28;20047;-18
2023/10/10 06:57:22;;;;;;;3.55;2.22;;;14.40;87.00;;;;;;4982233;28;20116;-19
2023/10/10 06:59:48;;;;;;;4.83;2.20;;;14.50;86.90;;;;;;4990172;28;20464;-18
2023/10/10 07:02:20;;;;;;;4.03;2.40;;;14.50;87.00;;;;;;4962038;28;20126;-18
2023/10/10 07:04:52;;;;;;;4.25;2.33;;;14.60;87.20;;;;;;4982504;28;20574;-18
2023/10/10 07:07:21;;;;;;;4.57;2.10;;;14.60;87.20;;;;;;4994952;28;20712;-19
2023/10/10 07:09:54;;;;;;;3.92;2.40;;;14.70;87.50;;;;;;4937014;28;20471;-18
2023/10/10 07:12:21;;;;;;;4.60;2.40;;;14.80;87.50;;;;;;4984458;28;20401;-18
2023/10/10 07:14:47;;;;;;;4.88;2.17;;;14.80;87.50;;;;;;4994701;28;20041;-18
2023/10/10 07:17:13;;;;;;;3.73;2.20;;;14.90;87.80;;;;;;4988022;28;20307;-18
2023/10/10 07:22:34;;;;;;;3.10;1.85;;;15.10;89.00;;;;;;4981558;28;21776;-19
2023/10/10 07:25:07;;;;;;;3.40;1.95;;;15.10;88.20;;;;;;4953322;28;20041;-18
2023/10/10 07:27:39;;;;;;;3.65;2.35;;;15.20;89.00;;;;;;4991641;28;20061;-18
2023/10/10 07:30:16;;;;;;;4.27;2.20;;;15.40;90.00;;;;;;4980703;28;20100;-19
2023/10/10 07:32:48;;;;;;;4.10;2.40;;;15.60;90.20;;;;;;4995589;28;20084;-18
2023/10/10 07:35:15;;;;;;;4.43;2.42;;;15.90;90.50;;;;;;4980976;28;20026;-19
2023/10/10 07:37:45;;;;;;;3.28;1.95;;;16.10;90.50;;;;;;4995940;28;20037;-18
2023/10/10 07:40:30;;;;;;;3.38;2.20;;;16.50;90.70;;;;;;4951474;28;20399;-18
2023/10/10 07:42:59;;;;;;;4.83;2.23;;;16.80;90.80;;;;;;4981663;28;20038;-18
2023/10/10 07:45:43;;;;;;;3.88;2.03;;;17.10;90.80;;;;;;4946314;28;20594;-19
2023/10/10 07:50:35;;;;;;;4.13;2.20;;;17.80;90.90;;;;;;4990658;28;20152;-18
2023/10/10 07:53:12;;;;;;;4.00;2.07;;;18.10;90.90;;;;;;4997180;28;20038;-19
2023/10/10 07:55:52;;;;;;;3.87;2.30;;;18.40;90.80;;;;;;4958552;28;20437;-18
2023/10/10 07:58:25;;;;;;;3.53;1.98;;;18.70;90.70;;;;;;5000997;28;20461;-20
2023/10/10 08:01:10;;;;;;;3.72;1.95;;;19.00;90.20;;;;;;4998119;28;20614;-18
2023/10/10 08:03:37;;;;;;;4.70;2.28;;;19.20;89.10;;;;;;4992410;28;20847;-19
2023/10/10 08:06:08;;;;;;;4.80;2.40;;;19.40;88.60;;;;;;4998630;28;20034;-21
2023/10/10 08:08:35;;;;;;;4.33;2.40;;;19.40;88.10;;;;;;4996500;28;20578;-19
2023/10/10 08:11:12;;;;;;;3.92;2.33;;;19.50;87.80;;;;;;4977299;28;20501;-20
2023/10/10 08:13:39;;;;;;;4.55;2.15;;;19.50;87.40;;;;;;5000458;28;20032;-18
2023/10/10 08:16:06;;;;;;;5.80;2.60;;;19.50;86.90;;;;;;4981052;28;20087;-19
2023/10/10 08:21:15;;;;;;;4.53;2.37;;;19.50;86.30;;;;;;4987000;28;20117;-18
2023/10/10 08:23:50;;;;;;;4.22;2.63;;;19.80;88.00;;;;;;4965288;28;20100;-18
2023/10/10 08:26:24;;;;;;;3.80;2.45;;;19.30;86.30;;;;;;4950577;28;20025;-22
2023/10/10 08:28:52;;;;;;;3.80;2.38;;;19.30;86.10;;;;;;5000320;28;20026;-19
2023/10/10 08:31:18;;;;;;;4.45;2.70;;;19.30;86.30;;;;;;4984408;28;20208;-18
2023/10/10 08:33:47;;;;;;;4.37;2.43;;;19.30;86.50;;;;;;4999582;28;20029;-18
2023/10/10 08:36:26;;;;;;;5.18;2.42;;;19.30;86.50;;;;;;4991416;28;20103;-18
2023/10/10 08:38:54;;;;;;;4.15;2.20;;;19.30;86.80;;;;;;4995787;28;20595;-18
2023/10/10 08:41:26;;;;;;;4.93;2.47;;;19.30;87.40;;;;;;4998242;28;20029;-20
2023/10/10 08:44:01;;;;;;;4.32;2.47;;;19.40;88.10;;;;;;4986930;28;20139;-21
2023/10/10 08:46:31;;;;;;;3.70;2.30;;;19.50;88.50;;;;;;4979320;28;20172;-19
2023/10/10 08:49:04;;;;;;;5.75;2.72;;;19.70;88.50;;;;;;4997377;28;20043;-18
2023/10/10 08:51:34;;;;;;;5.10;2.67;;;19.80;88.30;;;;;;4990327;28;20472;-19
2023/10/10 08:54:10;;;;;;;4.60;2.85;;;20.00;88.50;;;;;;4989818;28;20100;-18
2023/10/10 08:56:38;;;;;;;4.65;2.78;;;20.10;88.30;;;;;;4971733;28;20775;-19
2023/10/10 08:59:11;;;;;;;5.80;2.60;;;20.30;88.70;;;;;;4999437;28;20094;-18
2023/10/10 09:01:38;;;;;;;5.35;3.38;;;20.50;88.00;;;;;;4984733;28;20659;-20
2023/10/10 09:04:05;;;;;;;4.50;2.60;;;20.60;88.60;;;;;;4982419;28;20029;-18
2023/10/10 09:07:00;;;;;;;4.22;2.40;;;20.80;89.40;;;;;;4994565;28;22170;-18
2023/10/10 09:09:41;;;;;;;4.22;2.50;;;21.10;89.60;;;;;;4984007;28;20042;-19
2023/10/10 09:12:14;;;;;;;4.97;2.37;;;21.40;90.30;;;;;;4975328;28;20470;-18
2023/10/10 09:14:41;;;;;;;5.35;2.63;;;21.80;90.40;;;;;;4980362;28;20052;-18
2023/10/10 09:17:28;;;;;;;5.45;2.70;;;22.20;90.70;;;;;;4998863;28;20033;-18
2023/10/10 09:19:56;;;;;;;6.03;3.20;;;22.60;90.50;;;;;;4993999;28;20450;-18
2023/10/10 09:22:42;;;;;;;4.68;2.80;;;23.10;90.80;;;;;;4996043;28;20033;-19
2023/10/10 09:25:42;;;;;;;5.97;3.00;;;23.50;87.80;;;;;;4988661;28;20025;-18
2023/10/10 09:28:10;;;;;;;5.97;3.10;;;23.80;85.90;;;;;;4959792;28;20125;-19
2023/10/10 09:30:49;;;;;;;5.53;2.70;;;24.10;88.30;;;;;;5001737;28;20032;-19
2023/10/10 09:33:27;;;;;;;5.72;2.95;;;24.30;87.90;;;;;;4972015;28;20038;-19
2023/10/10 09:36:08;;;;;;;5.35;2.90;;;24.60;87.50;;;;;;4982163;28;20127;-19
2023/10/10 09:38:45;;;;;;;4.67;2.70;;;24.80;86.10;;;;;;4995732;28;20071;-19
2023/10/10 09:41:28;;;;;;;5.03;2.72;;;25.00;85.70;;;;;;4986348;28;20027;-19
2023/10/10 09:49:52;;;;;;;5.13;2.88;;;25.40;82.40;;;;;;4990032;28;20422;-19
2023/10/10 09:58:00;;;;;;;5.15;2.58;;;25.80;83.60;;;;;;4999559;28;20029;-18
2023/10/10 10:05:58;;;;;;;4.60;2.70;;;26.50;82.40;;;;;;4984341;28;20034;-21
2023/10/10 10:08:44;;;;;;;5.20;2.38;;;26.70;81.10;;;;;;4991156;28;20734;-19
2023/10/10 10:11:35;;;;;;;4.47;2.65;;;27.00;79.50;;;;;;4976834;28;20311;-19
2023/10/10 10:14:15;;;;;;;4.90;2.55;;;27.20;77.60;;;;;;4998297;28;20777;-18
2023/10/10 10:16:53;;;;;;;4.85;2.53;;;27.40;78.90;;;;;;4957361;28;20553;-19
2023/10/10 10:19:27;;;;;;;5.53;2.90;;;27.70;79.70;;;;;;4987500;28;20038;-19
2023/10/10 10:22:08;;;;;;;4.00;2.78;;;28.00;81.60;;;;;;5003387;28;20061;-22
2023/10/10 10:25:07;;;;;;;4.13;2.75;;;28.40;79.30;;;;;;4981232;28;20033;-19
2023/10/10 10:27:39;;;;;;;5.05;2.75;;;28.80;77.50;;;;;;4997407;28;20029;-19
2023/10/10 10:32:35;;;;;;;4.40;2.90;;;29.40;78.70;;;;;;4999339;28;20026;-19
2023/10/10 10:35:04;;;;;;;4.75;3.00;;;29.60;77.90;;;;;;4983515;28;20041;-20
2023/10/10 10:37:30;;;;;;;5.03;2.47;;;29.90;77.50;;;;;;5003422;28;20026;-18
2023/10/10 10:42:48;;;;;;;4.13;2.67;;;30.30;76.40;;;;;;4980845;28;20073;-20
2023/10/10 10:45:38;;;;;;;5.23;2.40;;;30.50;75.40;;;;;;4998903;28;20251;-19
2023/10/10 10:48:07;;;;;;;4.18;2.70;;;30.70;72.20;;;;;;4965858;28;20059;-19
2023/10/10 10:50:42;;;;;;;3.80;2.45;;;30.80;72.20;;;;;;4962833;28;20033;-18
2023/10/10 10:59:13;;;;;;;4.90;2.77;;;31.10;71.70;;;;;;4999318;28;20487;-18
2023/10/10 11:01:55;;;;;;;4.50;2.45;;;31.40;67.70;;;;;;4954549;28;20167;-19
2023/10/10 11:07:04;;;;;;;4.95;2.50;;;31.60;67.40;;;;;;4981995;28;20130;-19
2023/10/10 11:09:34;;;;;;;3.65;2.47;;;31.70;67.20;;;;;;4969829;28;20040;-19
2023/10/10 11:12:04;;;;;;;4.57;2.50;;;31.80;67.40;;;;;;4965930;28;20033;-20
2023/10/10 11:14:44;;;;;;;3.90;2.20;;;32.00;67.00;;;;;;4973232;28;20052;-19
2023/10/10 11:17:17;;;;;;;4.18;2.80;;;32.20;65.90;;;;;;4980149;28;20022;-19
2023/10/10 11:19:46;;;;;;;3.47;2.58;;;32.50;65.50;;;;;;4996501;28;20025;-18
2023/10/10 11:22:16;;;;;;;4.82;2.25;;;32.70;65.20;;;;;;4989241;28;21590;-20
2023/10/10 11:24:47;;;;;;;4.30;2.80;;;32.90;64.60;;;;;;5003322;28;20083;-19
2023/10/10 11:29:50;;;;;;;4.18;2.50;;;33.20;62.20;;;;;;4998648;28;20026;-19
2023/10/10 11:32:23;;;;;;;4.38;2.40;;;33.30;59.50;;;;;;5002551;28;20159;-18
2023/10/10 11:34:57;;;;;;;4.10;2.33;;;33.30;60.70;;;;;;4977070;28;20026;-19
2023/10/10 11:37:31;;;;;;;4.63;2.55;;;33.50;60.20;;;;;;5001022;28;20025;-19
2023/10/10 11:40:19;;;;;;;3.72;2.65;;;33.60;58.60;;;;;;4982185;28;20111;-20
2023/10/10 11:42:47;;;;;;;3.08;2.40;;;33.60;57.00;;;;;;4998449;28;20572;-19
2023/10/10 11:45:19;;;;;;;4.72;2.45;;;33.80;59.00;;;;;;4993297;28;20223;-20
2023/10/10 11:47:51;;;;;;;5.20;2.30;;;33.90;58.80;;;;;;5001512;28;20100;-19
2023/10/10 11:50:17;;;;;;;3.17;2.40;;;34.10;58.60;;;;;;4975641;28;20060;-20
2023/10/10 11:52:57;;;;;;;5.88;2.60;;;34.30;57.80;;;;;;4987875;28;20030;-19
2023/10/10 11:55:23;;;;;;;3.70;2.40;;;34.40;54.80;;;;;;4983502;28;20063;-20
2023/10/10 11:58:39;;;;;;;3.35;2.42;;;34.40;56.40;;;;;;5006683;28;20375;-19
2023/10/10 12:00:43;;;;;;;4.67;2.50;;;34.50;54.80;;;;;;4986649;28;20056;-19
2023/10/10 12:03:10;;;;;;;3.95;2.35;;;34.40;55.00;;;;;;5001126;28;20537;-20
2023/10/10 12:05:38;;;;;;;3.50;2.45;;;34.40;54.30;;;;;;4975785;28;20312;-20
2023/10/10 12:08:07;;;;;;;4.43;2.30;;;34.40;54.20;;;;;;4995461;28;20641;-20
2023/10/10 12:10:52;;;;;;;2.75;1.98;;;34.30;53.30;;;;;;4976178;28;20038;-18
2023/10/10 12:16:01;;;;;;;3.08;2.30;;;34.30;52.60;;;;;;4982664;28;20033;-18
2023/10/10 12:18:30;;;;;;;3.15;2.17;;;34.30;53.60;;;;;;4995723;28;20021;-21
2023/10/10 12:21:01;;;;;;;4.90;2.25;;;34.40;53.50;;;;;;4975512;28;20033;-18
2023/10/10 12:23:27;;;;;;;3.83;2.30;;;34.40;52.20;;;;;;4989377;28;20178;-20
2023/10/10 12:25:56;;;;;;;4.47;2.33;;;34.40;52.10;;;;;;4990550;28;20083;-19
2023/10/10 12:28:21;;;;;;;3.80;2.30;;;34.50;51.70;;;;;;4986759;28;20041;-19
2023/10/10 12:30:47;;;;;;;3.45;2.10;;;34.50;51.50;;;;;;4989664;28;20026;-19
2023/10/10 12:33:15;;;;;;;3.43;2.40;;;34.60;51.40;;;;;;4996460;28;20037;-19
2023/10/10 12:35:43;;;;;;;4.03;2.60;;;34.70;50.90;;;;;;4974025;28;20049;-19
2023/10/10 12:38:10;;;;;;;3.70;2.55;;;34.70;50.60;;;;;;4987440;28;20092;-19
2023/10/10 12:40:36;;;;;;;3.33;2.38;;;34.80;50.10;;;;;;4986733;28;20435;-19
2023/10/10 12:43:03;;;;;;;3.13;2.20;;;34.90;49.70;;;;;;5002422;28;20053;-19
2023/10/10 12:45:29;;;;;;;4.87;2.37;;;35.00;49.70;;;;;;4988973;28;20890;-19
2023/10/10 12:47:58;;;;;;;6.47;2.60;;;35.10;49.30;;;;;;4996503;28;20542;-20
2023/10/10 12:50:26;;;;;;;3.33;2.10;;;35.10;48.10;;;;;;4971443;28;20182;-18
2023/10/10 12:53:39;;;;;;;4.90;2.65;;;35.20;47.90;;;;;;5003299;28;20505;-19
2023/10/10 12:55:48;;;;;;;4.03;2.70;;;35.20;46.90;;;;;;4988609;28;20044;-21
2023/10/10 12:58:22;;;;;;;4.33;2.53;;;35.20;47.50;;;;;;4998736;28;20045;-21
2023/10/10 13:00:52;;;;;;;3.22;2.35;;;35.30;47.20;;;;;;4985623;28;20034;-19
2023/10/10 13:03:18;;;;;;;3.92;2.50;;;35.40;47.20;;;;;;4976822;28;20129;-21
2023/10/10 13:05:52;;;;;;;4.85;2.20;;;35.40;46.60;;;;;;5001454;28;20434;-20
2023/10/10 13:08:20;;;;;;;4.35;2.20;;;35.40;45.90;;;;;;4962685;28;20038;-19
2023/10/10 13:10:54;;;;;;;3.13;2.40;;;35.30;45.90;;;;;;4986460;28;20037;-19
2023/10/10 13:13:26;;;;;;;5.15;2.40;;;35.30;45.70;;;;;;4994761;28;20110;-19
2023/10/10 13:16:07;;;;;;;3.30;2.25;;;35.40;45.70;;;;;;4981563;28;20056;-19
2023/10/10 13:18:34;;;;;;;3.50;2.40;;;35.40;45.40;;;;;;5001372;28;20267;-19
2023/10/10 13:21:00;;;;;;;3.72;2.30;;;35.40;44.80;;;;;;5005715;28;20041;-19
2023/10/10 13:23:26;;;;;;;3.37;2.03;;;35.30;44.40;;;;;;4949571;28;20030;-19
2023/10/10 13:25:52;;;;;;;2.95;2.05;;;35.20;44.00;;;;;;5011696;28;20046;-20
2023/10/10 13:28:17;;;;;;;3.97;2.10;;;35.00;43.60;;;;;;4982177;28;20033;-19
2023/10/10 13:30:46;;;;;;;3.50;2.10;;;34.90;43.50;;;;;;5002457;28;20111;-21
2023/10/10 13:33:16;;;;;;;3.58;2.20;;;34.80;43.40;;;;;;4986100;28;20046;-19
2023/10/10 13:35:42;;;;;;;3.83;1.58;;;34.60;42.70;;;;;;5003797;28;20034;-20
2023/10/10 13:38:10;;;;;;;3.55;2.20;;;34.40;43.10;;;;;;4979689;28;20068;-20
2023/10/10 13:40:37;;;;;;;3.67;1.60;;;34.30;42.80;;;;;;4997449;28;20033;-19
2023/10/10 13:43:08;;;;;;;3.40;1.98;;;34.00;42.60;;;;;;4985473;28;20141;-19
2023/10/10 13:45:37;;;;;;;3.00;1.85;;;33.80;42.10;;;;;;5003459;28;20029;-19
2023/10/10 13:48:18;;;;;;;3.35;1.83;;;33.70;42.90;;;;;;4987673;28;20045;-19
2023/10/10 13:50:45;;;;;;;3.05;1.80;;;33.50;43.10;;;;;;4989973;28;20085;-19
2023/10/10 13:53:12;;;;;;;3.97;1.60;;;33.40;43.40;;;;;;4943783;28;20630;-20
2023/10/10 13:55:43;;;;;;;3.25;1.55;;;33.30;43.20;;;;;;4993761;28;20057;-20
2023/10/10 13:58:11;;;;;;;3.00;1.80;;;33.20;42.70;;;;;;4985546;28;20238;-19
2023/10/10 14:00:43;;;;;;;3.72;1.75;;;33.10;43.10;;;;;;4994889;28;20041;-19
2023/10/10 14:03:14;;;;;;;3.17;1.67;;;33.10;42.80;;;;;;5003445;28;20048;-19
2023/10/10 14:05:57;;;;;;;2.93;1.80;;;33.00;43.40;;;;;;5015556;28;20038;-19
2023/10/10 14:08:25;;;;;;;3.58;1.75;;;33.00;43.60;;;;;;5007701;28;20178;-20
2023/10/10 14:10:53;;;;;;;3.10;1.70;;;33.10;43.80;;;;;;4985949;28;20037;-20
2023/10/10 14:13:19;;;;;;;2.70;1.77;;;33.10;43.70;;;;;;4986495;28;20642;-19
2023/10/10 14:15:56;;;;;;;2.97;1.50;;;33.00;43.50;;;;;;4987060;28;20092;-20
2023/10/10 14:18:32;;;;;;;2.40;1.58;;;32.90;42.40;;;;;;4994863;28;22854;-19
2023/10/10 14:21:08;;;;;;;3.13;1.60;;;32.70;42.40;;;;;;4990304;28;20094;-19
2023/10/10 14:23:35;;;;;;;3.22;1.60;;;32.50;41.80;;;;;;4969960;28;20395;-19
2023/10/10 14:26:14;;;;;;;3.95;1.50;;;32.20;42.20;;;;;;4985837;28;20045;-19
2023/10/10 14:28:53;;;;;;;4.20;1.40;;;32.00;41.90;;;;;;4971933;28;20034;-22
2023/10/10 14:31:21;;;;;;;2.92;1.40;;;31.80;42.40;;;;;;4990961;28;20030;-19
2023/10/10 14:33:50;;;;;;;3.67;1.60;;;31.50;42.40;;;;;;4964102;28;20105;-20
2023/10/10 14:36:16;;;;;;;2.88;1.33;;;31.40;42.70;;;;;;4993416;28;20124;-19
2023/10/10 14:38:46;;;;;;;2.35;1.30;;;31.20;43.70;;;;;;4992777;28;20053;-22
2023/10/10 14:41:17;;;;;;;2.53;1.50;;;31.10;43.30;;;;;;4972080;28;20018;-20
2023/10/10 14:43:48;;;;;;;2.53;1.33;;;31.00;43.40;;;;;;4973444;28;20105;-20
2023/10/10 14:46:21;;;;;;;3.15;1.60;;;30.90;44.20;;;;;;4972795;28;20026;-19
2023/10/10 14:48:51;;;;;;;2.70;1.30;;;30.80;44.00;;;;;;4986991;28;20305;-19
2023/10/10 14:51:17;;;;;;;3.03;1.50;;;30.80;43.80;;;;;;4988996;28;20107;-19
2023/10/10 14:53:51;;;;;;;3.20;1.60;;;30.70;44.10;;;;;;4988581;28;20711;-18
2023/10/10 14:56:22;;;;;;;2.88;1.40;;;30.70;44.20;;;;;;4965723;28;20036;-20
2023/10/10 14:58:49;;;;;;;2.95;1.50;;;30.60;44.50;;;;;;4971494;28;20038;-19
2023/10/10 15:01:20;;;;;;;2.55;1.60;;;30.50;44.50;;;;;;4999748;28;20377;-19
2023/10/10 15:03:47;;;;;;;2.60;1.40;;;30.50;44.70;;;;;;4975631;28;20029;-19
2023/10/10 15:06:15;;;;;;;2.87;1.60;;;30.40;44.70;;;;;;4986260;28;20461;-20
2023/10/10 15:08:43;;;;;;;2.65;1.40;;;30.30;45.00;;;;;;4989665;28;20044;-19
2023/10/10 15:11:11;;;;;;;3.15;1.50;;;30.30;45.30;;;;;;4969838;28;20069;-19
2023/10/10 15:13:41;;;;;;;3.10;1.40;;;30.30;45.40;;;;;;4952909;28;20037;-20
2023/10/10 15:16:10;;;;;;;3.58;1.52;;;30.20;45.30;;;;;;4987797;28;20057;-18
2023/10/10 15:18:37;;;;;;;2.47;1.50;;;30.20;45.40;;;;;;4985989;28;20104;-20
2023/10/10 15:21:02;;;;;;;3.72;1.33;;;30.10;45.40;;;;;;4982179;28;20507;-19
2023/10/10 15:23:28;;;;;;;2.55;1.40;;;30.10;45.60;;;;;;4991052;28;20040;-19
2023/10/10 15:25:55;;;;;;;2.60;1.60;;;30.00;45.60;;;;;;4989097;28;20053;-18
2023/10/10 15:28:23;;;;;;;2.80;1.63;;;30.00;45.60;;;;;;4971743;28;20387;-18
2023/10/10 15:30:49;;;;;;;3.75;1.60;;;29.90;45.80;;;;;;4975928;28;20040;-20
2023/10/10 15:33:18;;;;;;;3.17;1.50;;;29.90;46.00;;;;;;4983617;28;20386;-19
2023/10/10 15:35:49;;;;;;;3.90;1.45;;;29.80;46.00;;;;;;4983781;28;20038;-19
2023/10/10 15:38:16;;;;;;;2.33;1.45;;;29.70;45.90;;;;;;4997370;28;20104;-18
2023/10/10 15:40:43;;;;;;;4.23;1.50;;;29.70;46.00;;;;;;4968590;28;20673;-20
2023/10/10 15:43:12;;;;;;;3.15;1.58;;;29.60;46.00;;;;;;4985370;28;20030;-18
2023/10/10 15:45:47;;;;;;;3.70;1.50;;;29.50;46.10;;;;;;4951044;28;20037;-21
2023/10/10 15:48:23;;;;;;;2.65;1.50;;;29.50;46.20;;;;;;4996167;28;20057;-19
2023/10/10 15:50:57;;;;;;;2.67;1.60;;;29.50;46.50;;;;;;4968226;28;20034;-20
2023/10/10 15:53:27;;;;;;;4.83;1.43;;;29.40;46.50;;;;;;4996746;28;20034;-19
2023/10/10 15:56:07;;;;;;;3.92;1.70;;;29.30;46.60;;;;;;4967193;28;20607;-19
2023/10/10 15:58:39;;;;;;;3.05;1.48;;;29.30;46.70;;;;;;4989281;28;20046;-20
2023/10/10 16:01:14;;;;;;;3.30;1.40;;;29.20;46.80;;;;;;4970532;28;20083;-19
2023/10/10 16:03:47;;;;;;;3.78;1.70;;;29.10;46.90;;;;;;4980514;28;20037;-19
2023/10/10 16:06:14;;;;;;;3.83;1.60;;;29.00;46.80;;;;;;4957678;28;20145;-19
2023/10/10 16:08:40;;;;;;;3.72;1.58;;;28.90;47.10;;;;;;5000878;28;20210;-19